sensor_id;sensor_type;location;lat;lon;timestamp;temperature;humidity
2459;DHT22;1241;50.920;6.936;2023-02-28T00:00:27;1.10;99.90
2459;DHT22;1241;50.920;6.936;2023-02-28T00:02:53;1.20;99.90
2459;DHT22;1241;50.920;6.936;2023-02-28T00:05:21;1.10;99.90
2459;DHT22;1241;50.920;6.936;2023-02-28T00:07:47;1.10;99.90
2459;DHT22;1241;50.920;6.936;2023-02-28T00:10:17;1.10;99.90
2459;DHT22;1241;50.920;6.936;2023-02-28T00:12:47;1.00;99.90
2459;DHT22;1241;50.920;6.936;2023-02-28T00:15:13;1.00;99.90
2459;DHT22;1241;50.920;6.936;2023-02-28T00:17:39;1.00;99.90
2459;DHT22;1241;50.920;6.936;2023-02-28T00:20:06;1.00;99.90
2459;DHT22;1241;50.920;6.936;2023-02-28T00:22:49;1.00;99.90
2459;DHT22;1241;50.920;6.936;2023-02-28T00:25:18;1.00;99.90
2459;DHT22;1241;50.920;6.936;2023-02-28T00:27:44;1.00;99.90
2459;DHT22;1241;50.920;6.936;2023-02-28T00:30:12;1.00;99.90
2459;DHT22;1241;50.920;6.936;2023-02-28T00:32:38;1.00;99.90
2459;DHT22;1241;50.920;6.936;2023-02-28T00:35:05;1.00;99.90
2459;DHT22;1241;50.920;6.936;2023-02-28T00:37:31;1.00;99.90
2459;DHT22;1241;50.920;6.936;2023-02-28T00:39:57;1.00;99.90
2459;DHT22;1241;50.920;6.936;2023-02-28T00:42:23;0.90;99.90
2459;DHT22;1241;50.920;6.936;2023-02-28T00:44:49;0.90;99.90
2459;DHT22;1241;50.920;6.936;2023-02-28T00:47:15;0.90;99.90
2459;DHT22;1241;50.920;6.936;2023-02-28T00:49:42;0.90;99.90
2459;DHT22;1241;50.920;6.936;2023-02-28T00:52:09;0.90;99.90
2459;DHT22;1241;50.920;6.936;2023-02-28T00:54:34;0.90;99.90
2459;DHT22;1241;50.920;6.936;2023-02-28T00:57:00;0.90;99.90
2459;DHT22;1241;50.920;6.936;2023-02-28T00:59:26;0.90;99.90
2459;DHT22;1241;50.920;6.936;2023-02-28T01:01:51;0.80;99.90
2459;DHT22;1241;50.920;6.936;2023-02-28T01:04:17;0.80;99.90
2459;DHT22;1241;50.920;6.936;2023-02-28T01:06:43;0.80;99.90
2459;DHT22;1241;50.920;6.936;2023-02-28T01:09:10;0.80;99.90
2459;DHT22;1241;50.920;6.936;2023-02-28T01:11:36;0.80;99.90
2459;DHT22;1241;50.920;6.936;2023-02-28T01:14:03;0.80;99.90
2459;DHT22;1241;50.920;6.936;2023-02-28T01:16:29;0.80;99.90
2459;DHT22;1241;50.920;6.936;2023-02-28T01:18:55;0.70;99.90
2459;DHT22;1241;50.920;6.936;2023-02-28T01:21:21;0.80;99.90
2459;DHT22;1241;50.920;6.936;2023-02-28T01:23:48;0.70;99.90
2459;DHT22;1241;50.920;6.936;2023-02-28T01:26:21;0.70;99.90
2459;DHT22;1241;50.920;6.936;2023-02-28T01:28:49;0.70;99.90
2459;DHT22;1241;50.920;6.936;2023-02-28T01:31:15;0.70;99.90
2459;DHT22;1241;50.920;6.936;2023-02-28T01:33:42;0.70;99.90
2459;DHT22;1241;50.920;6.936;2023-02-28T01:36:11;0.70;99.90
2459;DHT22;1241;50.920;6.936;2023-02-28T01:38:37;0.70;99.90
2459;DHT22;1241;50.920;6.936;2023-02-28T01:41:04;0.60;99.90
2459;DHT22;1241;50.920;6.936;2023-02-28T01:46:12;0.60;99.90
2459;DHT22;1241;50.920;6.936;2023-02-28T01:49:03;0.60;99.90
2459;DHT22;1241;50.920;6.936;2023-02-28T01:51:44;0.60;99.90
2459;DHT22;1241;50.920;6.936;2023-02-28T01:54:14;0.50;99.90
2459;DHT22;1241;50.920;6.936;2023-02-28T01:56:47;0.50;99.90
2459;DHT22;1241;50.920;6.936;2023-02-28T01:59:25;0.50;99.90
2459;DHT22;1241;50.920;6.936;2023-02-28T02:01:53;0.50;99.90
2459;DHT22;1241;50.920;6.936;2023-02-28T02:04:20;0.50;99.90
2459;DHT22;1241;50.920;6.936;2023-02-28T02:06:47;0.50;99.90
2459;DHT22;1241;50.920;6.936;2023-02-28T02:09:13;0.50;99.90
2459;DHT22;1241;50.920;6.936;2023-02-28T02:11:41;0.40;99.90
2459;DHT22;1241;50.920;6.936;2023-02-28T02:17:14;0.50;99.90
2459;DHT22;1241;50.920;6.936;2023-02-28T02:23:00;0.50;99.90
2459;DHT22;1241;50.920;6.936;2023-02-28T02:37:50;0.50;99.90
2459;DHT22;1241;50.920;6.936;2023-02-28T02:40:22;0.50;99.90
2459;DHT22;1241;50.920;6.936;2023-02-28T02:43:52;0.50;99.90
2459;DHT22;1241;50.920;6.936;2023-02-28T02:45:51;0.50;99.90
2459;DHT22;1241;50.920;6.936;2023-02-28T02:48:25;0.50;99.90
2459;DHT22;1241;50.920;6.936;2023-02-28T02:50:55;0.50;99.90
2459;DHT22;1241;50.920;6.936;2023-02-28T02:53:38;0.50;99.90
2459;DHT22;1241;50.920;6.936;2023-02-28T02:56:07;0.50;99.90
2459;DHT22;1241;50.920;6.936;2023-02-28T02:58:40;0.40;99.90
2459;DHT22;1241;50.920;6.936;2023-02-28T03:01:14;0.40;99.90
2459;DHT22;1241;50.920;6.936;2023-02-28T03:03:41;0.40;99.90
2459;DHT22;1241;50.920;6.936;2023-02-28T03:06:07;0.40;99.90
2459;DHT22;1241;50.920;6.936;2023-02-28T03:08:36;0.40;99.90
2459;DHT22;1241;50.920;6.936;2023-02-28T03:11:05;0.30;99.90
2459;DHT22;1241;50.920;6.936;2023-02-28T03:16:49;0.30;99.90
2459;DHT22;1241;50.920;6.936;2023-02-28T03:19:35;0.30;99.90
2459;DHT22;1241;50.920;6.936;2023-02-28T03:27:29;0.20;99.90
2459;DHT22;1241;50.920;6.936;2023-02-28T03:36:09;0.30;99.90
2459;DHT22;1241;50.920;6.936;2023-02-28T03:38:45;0.30;99.90
2459;DHT22;1241;50.920;6.936;2023-02-28T03:41:25;0.30;99.90
2459;DHT22;1241;50.920;6.936;2023-02-28T03:44:00;0.40;99.90
2459;DHT22;1241;50.920;6.936;2023-02-28T03:46:30;0.40;99.90
2459;DHT22;1241;50.920;6.936;2023-02-28T03:49:12;0.40;99.90
2459;DHT22;1241;50.920;6.936;2023-02-28T03:51:40;0.50;99.90
2459;DHT22;1241;50.920;6.936;2023-02-28T03:54:14;0.50;99.90
2459;DHT22;1241;50.920;6.936;2023-02-28T03:56:51;0.50;99.90
2459;DHT22;1241;50.920;6.936;2023-02-28T03:59:34;0.50;99.90
2459;DHT22;1241;50.920;6.936;2023-02-28T04:02:01;0.40;99.90
2459;DHT22;1241;50.920;6.936;2023-02-28T04:04:27;0.40;99.90
2459;DHT22;1241;50.920;6.936;2023-02-28T04:06:53;0.30;99.90
2459;DHT22;1241;50.920;6.936;2023-02-28T04:09:26;0.30;99.90
2459;DHT22;1241;50.920;6.936;2023-02-28T04:11:53;0.30;99.90
2459;DHT22;1241;50.920;6.936;2023-02-28T04:14:18;0.30;99.90
2459;DHT22;1241;50.920;6.936;2023-02-28T04:16:44;0.20;99.90
2459;DHT22;1241;50.920;6.936;2023-02-28T04:19:11;0.20;99.90
2459;DHT22;1241;50.920;6.936;2023-02-28T04:21:45;0.20;99.90
2459;DHT22;1241;50.920;6.936;2023-02-28T04:24:14;0.10;99.90
2459;DHT22;1241;50.920;6.936;2023-02-28T04:26:42;0.10;99.90
2459;DHT22;1241;50.920;6.936;2023-02-28T04:29:10;0.10;99.90
2459;DHT22;1241;50.920;6.936;2023-02-28T04:31:36;0.10;99.90
2459;DHT22;1241;50.920;6.936;2023-02-28T04:34:02;0.10;99.90
2459;DHT22;1241;50.920;6.936;2023-02-28T04:36:28;0.00;99.90
2459;DHT22;1241;50.920;6.936;2023-02-28T04:38:53;0.00;99.90
2459;DHT22;1241;50.920;6.936;2023-02-28T04:41:19;0.00;99.90
2459;DHT22;1241;50.920;6.936;2023-02-28T04:43:45;0.00;99.90
2459;DHT22;1241;50.920;6.936;2023-02-28T04:46:11;-0.10;99.90
2459;DHT22;1241;50.920;6.936;2023-02-28T04:48:38;-0.10;99.90
2459;DHT22;1241;50.920;6.936;2023-02-28T04:51:07;-0.20;99.90
2459;DHT22;1241;50.920;6.936;2023-02-28T04:53:33;-0.20;99.90
2459;DHT22;1241;50.920;6.936;2023-02-28T04:56:00;-0.20;99.90
2459;DHT22;1241;50.920;6.936;2023-02-28T04:58:26;-0.30;99.90
2459;DHT22;1241;50.920;6.936;2023-02-28T05:00:53;-0.30;99.90
2459;DHT22;1241;50.920;6.936;2023-02-28T05:03:20;-0.30;99.90
2459;DHT22;1241;50.920;6.936;2023-02-28T05:05:47;-0.30;99.90
2459;DHT22;1241;50.920;6.936;2023-02-28T05:08:13;-0.40;99.90
2459;DHT22;1241;50.920;6.936;2023-02-28T05:10:39;-0.40;99.90
2459;DHT22;1241;50.920;6.936;2023-02-28T05:13:04;-0.40;99.90
2459;DHT22;1241;50.920;6.936;2023-02-28T05:15:30;-0.40;99.90
2459;DHT22;1241;50.920;6.936;2023-02-28T05:17:56;-0.40;99.90
2459;DHT22;1241;50.920;6.936;2023-02-28T05:20:21;-0.40;99.90
2459;DHT22;1241;50.920;6.936;2023-02-28T05:22:47;-0.40;99.90
2459;DHT22;1241;50.920;6.936;2023-02-28T05:25:18;-0.50;99.90
2459;DHT22;1241;50.920;6.936;2023-02-28T05:27:44;-0.40;99.90
2459;DHT22;1241;50.920;6.936;2023-02-28T05:30:10;-0.40;99.90
2459;DHT22;1241;50.920;6.936;2023-02-28T05:32:40;-0.50;99.90
2459;DHT22;1241;50.920;6.936;2023-02-28T05:35:11;-0.50;99.90
2459;DHT22;1241;50.920;6.936;2023-02-28T05:37:38;-0.50;99.90
2459;DHT22;1241;50.920;6.936;2023-02-28T05:40:05;-0.50;99.90
2459;DHT22;1241;50.920;6.936;2023-02-28T05:42:36;-0.50;99.90
2459;DHT22;1241;50.920;6.936;2023-02-28T05:45:03;-0.50;99.90
2459;DHT22;1241;50.920;6.936;2023-02-28T05:47:29;-0.50;99.90
2459;DHT22;1241;50.920;6.936;2023-02-28T05:49:56;-0.50;99.90
2459;DHT22;1241;50.920;6.936;2023-02-28T05:52:22;-0.50;99.90
2459;DHT22;1241;50.920;6.936;2023-02-28T05:54:49;-0.40;99.90
2459;DHT22;1241;50.920;6.936;2023-02-28T05:57:14;-0.40;99.90
2459;DHT22;1241;50.920;6.936;2023-02-28T05:59:40;-0.40;99.90
2459;DHT22;1241;50.920;6.936;2023-02-28T06:02:14;-0.30;99.90
2459;DHT22;1241;50.920;6.936;2023-02-28T06:04:39;-0.30;99.90
2459;DHT22;1241;50.920;6.936;2023-02-28T06:07:06;-0.20;99.90
2459;DHT22;1241;50.920;6.936;2023-02-28T06:09:32;-0.30;99.90
2459;DHT22;1241;50.920;6.936;2023-02-28T06:11:59;-0.30;99.90
2459;DHT22;1241;50.920;6.936;2023-02-28T06:14:25;-0.30;99.90
2459;DHT22;1241;50.920;6.936;2023-02-28T06:16:51;-0.30;99.90
2459;DHT22;1241;50.920;6.936;2023-02-28T06:19:17;-0.30;99.90
2459;DHT22;1241;50.920;6.936;2023-02-28T06:21:43;-0.30;99.90
2459;DHT22;1241;50.920;6.936;2023-02-28T06:24:09;-0.30;99.90
2459;DHT22;1241;50.920;6.936;2023-02-28T06:26:35;-0.30;99.90
2459;DHT22;1241;50.920;6.936;2023-02-28T06:29:00;-0.30;99.90
2459;DHT22;1241;50.920;6.936;2023-02-28T06:31:26;-0.20;99.90
2459;DHT22;1241;50.920;6.936;2023-02-28T06:33:55;-0.20;99.90
2459;DHT22;1241;50.920;6.936;2023-02-28T06:36:21;-0.10;99.90
2459;DHT22;1241;50.920;6.936;2023-02-28T06:38:47;-0.10;99.90
2459;DHT22;1241;50.920;6.936;2023-02-28T06:41:17;-0.10;99.90
2459;DHT22;1241;50.920;6.936;2023-02-28T06:43:43;0.00;99.90
2459;DHT22;1241;50.920;6.936;2023-02-28T06:46:12;0.00;99.90
2459;DHT22;1241;50.920;6.936;2023-02-28T06:48:39;0.00;99.90
2459;DHT22;1241;50.920;6.936;2023-02-28T06:51:07;0.10;99.90
2459;DHT22;1241;50.920;6.936;2023-02-28T06:53:33;0.10;99.90
2459;DHT22;1241;50.920;6.936;2023-02-28T06:55:59;0.10;99.90
2459;DHT22;1241;50.920;6.936;2023-02-28T06:58:25;0.10;99.90
2459;DHT22;1241;50.920;6.936;2023-02-28T07:00:53;0.10;99.90
2459;DHT22;1241;50.920;6.936;2023-02-28T07:03:19;0.20;99.90
2459;DHT22;1241;50.920;6.936;2023-02-28T07:05:45;0.30;99.90
2459;DHT22;1241;50.920;6.936;2023-02-28T07:08:11;0.40;99.90
2459;DHT22;1241;50.920;6.936;2023-02-28T07:10:40;0.50;99.90
2459;DHT22;1241;50.920;6.936;2023-02-28T07:13:07;0.60;99.90
2459;DHT22;1241;50.920;6.936;2023-02-28T07:15:35;0.60;99.90
2459;DHT22;1241;50.920;6.936;2023-02-28T07:18:00;0.70;99.90
2459;DHT22;1241;50.920;6.936;2023-02-28T07:20:26;0.70;99.90
2459;DHT22;1241;50.920;6.936;2023-02-28T07:22:52;0.70;99.90
2459;DHT22;1241;50.920;6.936;2023-02-28T07:25:26;0.80;99.90
2459;DHT22;1241;50.920;6.936;2023-02-28T07:27:53;0.80;99.90
2459;DHT22;1241;50.920;6.936;2023-02-28T07:30:18;0.80;99.90
2459;DHT22;1241;50.920;6.936;2023-02-28T07:32:45;0.70;99.90
2459;DHT22;1241;50.920;6.936;2023-02-28T07:35:10;0.70;99.90
2459;DHT22;1241;50.920;6.936;2023-02-28T07:37:37;0.70;99.90
2459;DHT22;1241;50.920;6.936;2023-02-28T07:40:04;0.70;99.90
2459;DHT22;1241;50.920;6.936;2023-02-28T07:42:32;0.70;99.90
2459;DHT22;1241;50.920;6.936;2023-02-28T07:44:58;0.70;99.90
2459;DHT22;1241;50.920;6.936;2023-02-28T07:47:24;0.70;99.90
2459;DHT22;1241;50.920;6.936;2023-02-28T07:49:50;0.70;99.90
2459;DHT22;1241;50.920;6.936;2023-02-28T07:52:16;0.80;99.90
2459;DHT22;1241;50.920;6.936;2023-02-28T07:54:41;0.90;99.90
2459;DHT22;1241;50.920;6.936;2023-02-28T07:57:07;1.00;99.90
2459;DHT22;1241;50.920;6.936;2023-02-28T07:59:33;1.00;99.90
2459;DHT22;1241;50.920;6.936;2023-02-28T08:01:58;1.00;99.90
2459;DHT22;1241;50.920;6.936;2023-02-28T08:04:24;1.10;99.90
2459;DHT22;1241;50.920;6.936;2023-02-28T08:06:50;1.20;99.90
2459;DHT22;1241;50.920;6.936;2023-02-28T08:09:19;1.30;99.90
2459;DHT22;1241;50.920;6.936;2023-02-28T08:11:44;1.30;99.90
2459;DHT22;1241;50.920;6.936;2023-02-28T08:14:10;1.30;99.90
2459;DHT22;1241;50.920;6.936;2023-02-28T08:16:36;1.40;99.90
2459;DHT22;1241;50.920;6.936;2023-02-28T08:19:01;1.40;99.90
2459;DHT22;1241;50.920;6.936;2023-02-28T08:21:27;1.50;99.90
2459;DHT22;1241;50.920;6.936;2023-02-28T08:23:52;1.60;99.90
2459;DHT22;1241;50.920;6.936;2023-02-28T08:26:18;1.70;99.90
2459;DHT22;1241;50.920;6.936;2023-02-28T08:28:45;1.70;99.90
2459;DHT22;1241;50.920;6.936;2023-02-28T08:31:12;1.70;99.90
2459;DHT22;1241;50.920;6.936;2023-02-28T08:33:39;1.80;99.90
2459;DHT22;1241;50.920;6.936;2023-02-28T08:36:06;1.90;99.90
2459;DHT22;1241;50.920;6.936;2023-02-28T08:38:32;1.90;99.90
2459;DHT22;1241;50.920;6.936;2023-02-28T08:41:03;1.90;99.90
2459;DHT22;1241;50.920;6.936;2023-02-28T08:43:30;1.90;99.90
2459;DHT22;1241;50.920;6.936;2023-02-28T08:45:56;2.00;99.90
2459;DHT22;1241;50.920;6.936;2023-02-28T08:48:26;2.10;99.90
2459;DHT22;1241;50.920;6.936;2023-02-28T08:50:57;2.10;99.90
2459;DHT22;1241;50.920;6.936;2023-02-28T08:53:23;2.10;99.90
2459;DHT22;1241;50.920;6.936;2023-02-28T08:55:59;2.20;99.90
2459;DHT22;1241;50.920;6.936;2023-02-28T08:58:25;2.30;99.90
2459;DHT22;1241;50.920;6.936;2023-02-28T09:00:51;2.30;99.90
2459;DHT22;1241;50.920;6.936;2023-02-28T09:03:17;2.40;99.90
2459;DHT22;1241;50.920;6.936;2023-02-28T09:06:16;2.40;99.90
2459;DHT22;1241;50.920;6.936;2023-02-28T09:08:43;2.50;99.90
2459;DHT22;1241;50.920;6.936;2023-02-28T09:11:09;2.60;99.90
2459;DHT22;1241;50.920;6.936;2023-02-28T09:13:36;2.70;99.90
2459;DHT22;1241;50.920;6.936;2023-02-28T09:16:04;2.70;99.00
2459;DHT22;1241;50.920;6.936;2023-02-28T09:18:30;2.80;99.10
2459;DHT22;1241;50.920;6.936;2023-02-28T09:20:56;2.80;99.90
2459;DHT22;1241;50.920;6.936;2023-02-28T09:23:23;2.90;97.10
2459;DHT22;1241;50.920;6.936;2023-02-28T09:25:54;2.90;96.10
2459;DHT22;1241;50.920;6.936;2023-02-28T09:28:20;2.80;94.90
2459;DHT22;1241;50.920;6.936;2023-02-28T09:30:48;2.80;96.00
2459;DHT22;1241;50.920;6.936;2023-02-28T09:33:15;3.00;96.30
2459;DHT22;1241;50.920;6.936;2023-02-28T09:35:42;2.80;93.80
2459;DHT22;1241;50.920;6.936;2023-02-28T09:38:09;2.80;94.30
2459;DHT22;1241;50.920;6.936;2023-02-28T09:43:18;2.80;95.10
2459;DHT22;1241;50.920;6.936;2023-02-28T09:46:40;2.90;96.30
2459;DHT22;1241;50.920;6.936;2023-02-28T09:48:47;3.00;94.90
2459;DHT22;1241;50.920;6.936;2023-02-28T09:54:32;3.20;93.50
2459;DHT22;1241;50.920;6.936;2023-02-28T09:59:59;3.20;92.90
2459;DHT22;1241;50.920;6.936;2023-02-28T10:05:37;3.20;92.20
2459;DHT22;1241;50.920;6.936;2023-02-28T10:16:01;3.60;92.70
2459;DHT22;1241;50.920;6.936;2023-02-28T10:18:33;3.60;92.10
2459;DHT22;1241;50.920;6.936;2023-02-28T10:20:59;3.60;91.20
2459;DHT22;1241;50.920;6.936;2023-02-28T10:23:34;3.70;91.30
2459;DHT22;1241;50.920;6.936;2023-02-28T10:26:14;3.80;92.10
2459;DHT22;1241;50.920;6.936;2023-02-28T10:28:42;3.80;91.80
2459;DHT22;1241;50.920;6.936;2023-02-28T10:31:16;3.80;91.50
2459;DHT22;1241;50.920;6.936;2023-02-28T10:33:43;3.90;90.70
2459;DHT22;1241;50.920;6.936;2023-02-28T10:36:16;3.80;90.70
2459;DHT22;1241;50.920;6.936;2023-02-28T10:38:44;3.90;91.80
2459;DHT22;1241;50.920;6.936;2023-02-28T10:41:16;4.00;91.20
2459;DHT22;1241;50.920;6.936;2023-02-28T10:43:43;4.00;90.90
2459;DHT22;1241;50.920;6.936;2023-02-28T10:48:45;4.10;90.50
2459;DHT22;1241;50.920;6.936;2023-02-28T10:51:18;4.10;90.00
2459;DHT22;1241;50.920;6.936;2023-02-28T10:53:52;4.10;90.20
2459;DHT22;1241;50.920;6.936;2023-02-28T10:56:22;4.10;90.30
2459;DHT22;1241;50.920;6.936;2023-02-28T10:58:55;4.20;89.60
2459;DHT22;1241;50.920;6.936;2023-02-28T11:01:23;4.10;88.80
2459;DHT22;1241;50.920;6.936;2023-02-28T11:03:50;4.00;90.20
2459;DHT22;1241;50.920;6.936;2023-02-28T11:06:20;4.10;90.90
2459;DHT22;1241;50.920;6.936;2023-02-28T11:08:49;4.20;90.50
2459;DHT22;1241;50.920;6.936;2023-02-28T11:11:16;4.30;90.30
2459;DHT22;1241;50.920;6.936;2023-02-28T11:13:43;4.30;90.50
2459;DHT22;1241;50.920;6.936;2023-02-28T11:16:11;4.30;89.30
2459;DHT22;1241;50.920;6.936;2023-02-28T11:18:57;4.40;89.40
2459;DHT22;1241;50.920;6.936;2023-02-28T11:21:34;4.60;91.40
2459;DHT22;1241;50.920;6.936;2023-02-28T11:24:25;4.70;88.60
2459;DHT22;1241;50.920;6.936;2023-02-28T11:26:52;4.60;86.60
2459;DHT22;1241;50.920;6.936;2023-02-28T11:34:29;4.40;87.20
2459;DHT22;1241;50.920;6.936;2023-02-28T11:36:57;4.40;85.90
2459;DHT22;1241;50.920;6.936;2023-02-28T11:39:24;4.30;85.90
2459;DHT22;1241;50.920;6.936;2023-02-28T11:48:43;4.40;87.70
2459;DHT22;1241;50.920;6.936;2023-02-28T11:50:54;4.50;86.80
2459;DHT22;1241;50.920;6.936;2023-02-28T11:56:03;4.70;87.50
2459;DHT22;1241;50.920;6.936;2023-02-28T11:58:53;4.70;87.00
2459;DHT22;1241;50.920;6.936;2023-02-28T12:07:11;4.80;81.80
2459;DHT22;1241;50.920;6.936;2023-02-28T12:15:02;5.20;83.30
2459;DHT22;1241;50.920;6.936;2023-02-28T12:28:24;5.30;79.00
2459;DHT22;1241;50.920;6.936;2023-02-28T12:31:24;5.30;80.30
2459;DHT22;1241;50.920;6.936;2023-02-28T12:33:57;5.40;80.70
2459;DHT22;1241;50.920;6.936;2023-02-28T12:36:25;5.50;81.60
2459;DHT22;1241;50.920;6.936;2023-02-28T12:38:56;5.40;81.70
2459;DHT22;1241;50.920;6.936;2023-02-28T12:41:34;5.40;81.20
2459;DHT22;1241;50.920;6.936;2023-02-28T12:44:06;5.60;81.50
2459;DHT22;1241;50.920;6.936;2023-02-28T12:46:41;5.60;78.60
2459;DHT22;1241;50.920;6.936;2023-02-28T12:49:17;5.50;80.20
2459;DHT22;1241;50.920;6.936;2023-02-28T12:51:45;5.40;80.90
2459;DHT22;1241;50.920;6.936;2023-02-28T12:54:39;5.40;81.10
2459;DHT22;1241;50.920;6.936;2023-02-28T12:57:18;5.30;81.60
2459;DHT22;1241;50.920;6.936;2023-02-28T12:59:56;5.30;83.40
2459;DHT22;1241;50.920;6.936;2023-02-28T13:05:29;5.40;82.80
2459;DHT22;1241;50.920;6.936;2023-02-28T13:10:55;5.40;81.80
2459;DHT22;1241;50.920;6.936;2023-02-28T13:13:26;5.40;82.30
2459;DHT22;1241;50.920;6.936;2023-02-28T13:16:09;5.40;83.30
2459;DHT22;1241;50.920;6.936;2023-02-28T13:18:40;5.30;82.30
2459;DHT22;1241;50.920;6.936;2023-02-28T13:21:28;5.30;85.10
2459;DHT22;1241;50.920;6.936;2023-02-28T13:24:00;5.40;87.50
2459;DHT22;1241;50.920;6.936;2023-02-28T13:34:41;5.30;84.10
2459;DHT22;1241;50.920;6.936;2023-02-28T13:40:26;5.20;83.00
2459;DHT22;1241;50.920;6.936;2023-02-28T13:42:52;5.20;84.50
2459;DHT22;1241;50.920;6.936;2023-02-28T13:45:28;5.30;83.80
2459;DHT22;1241;50.920;6.936;2023-02-28T13:50:36;5.40;85.20
2459;DHT22;1241;50.920;6.936;2023-02-28T13:59:14;5.60;82.60
2459;DHT22;1241;50.920;6.936;2023-02-28T14:02:10;5.70;80.00
2459;DHT22;1241;50.920;6.936;2023-02-28T14:07:33;5.70;78.60
2459;DHT22;1241;50.920;6.936;2023-02-28T14:10:07;5.70;79.10
2459;DHT22;1241;50.920;6.936;2023-02-28T14:12:57;5.80;79.50
2459;DHT22;1241;50.920;6.936;2023-02-28T14:18:24;5.90;80.90
2459;DHT22;1241;50.920;6.936;2023-02-28T14:24:30;5.90;79.40
2459;DHT22;1241;50.920;6.936;2023-02-28T14:37:45;5.70;79.50
2459;DHT22;1241;50.920;6.936;2023-02-28T14:40:30;5.70;79.30
2459;DHT22;1241;50.920;6.936;2023-02-28T14:43:00;5.70;80.40
2459;DHT22;1241;50.920;6.936;2023-02-28T14:45:32;5.70;79.80
2459;DHT22;1241;50.920;6.936;2023-02-28T14:47:58;5.70;79.80
2459;DHT22;1241;50.920;6.936;2023-02-28T14:50:31;5.80;81.10
2459;DHT22;1241;50.920;6.936;2023-02-28T14:52:57;5.80;80.50
2459;DHT22;1241;50.920;6.936;2023-02-28T14:55:30;5.80;80.50
2459;DHT22;1241;50.920;6.936;2023-02-28T14:58:01;5.80;80.90
2459;DHT22;1241;50.920;6.936;2023-02-28T15:00:36;5.80;82.10
2459;DHT22;1241;50.920;6.936;2023-02-28T15:05:57;5.90;81.90
2459;DHT22;1241;50.920;6.936;2023-02-28T15:08:23;5.90;80.40
2459;DHT22;1241;50.920;6.936;2023-02-28T15:11:13;5.90;81.70
2459;DHT22;1241;50.920;6.936;2023-02-28T15:13:40;6.00;82.30
2459;DHT22;1241;50.920;6.936;2023-02-28T15:16:32;6.10;80.40
2459;DHT22;1241;50.920;6.936;2023-02-28T15:19:01;6.10;78.80
2459;DHT22;1241;50.920;6.936;2023-02-28T15:21:34;6.10;77.30
2459;DHT22;1241;50.920;6.936;2023-02-28T15:26:39;5.90;77.20
2459;DHT22;1241;50.920;6.936;2023-02-28T15:29:16;5.90;77.70
2459;DHT22;1241;50.920;6.936;2023-02-28T15:32:01;5.90;77.80
2459;DHT22;1241;50.920;6.936;2023-02-28T15:34:38;5.80;76.90
2459;DHT22;1241;50.920;6.936;2023-02-28T15:37:33;5.80;78.20
2459;DHT22;1241;50.920;6.936;2023-02-28T15:40:28;5.80;77.80
2459;DHT22;1241;50.920;6.936;2023-02-28T15:45:50;5.70;78.00
2459;DHT22;1241;50.920;6.936;2023-02-28T15:51:18;5.80;79.40
2459;DHT22;1241;50.920;6.936;2023-02-28T15:54:01;5.80;80.50
2459;DHT22;1241;50.920;6.936;2023-02-28T15:56:30;5.90;80.90
2459;DHT22;1241;50.920;6.936;2023-02-28T15:59:01;5.90;80.60
2459;DHT22;1241;50.920;6.936;2023-02-28T16:01:29;5.90;79.60
2459;DHT22;1241;50.920;6.936;2023-02-28T16:03:59;5.80;79.80
2459;DHT22;1241;50.920;6.936;2023-02-28T16:07:00;5.80;80.80
2459;DHT22;1241;50.920;6.936;2023-02-28T16:09:26;5.70;80.50
2459;DHT22;1241;50.920;6.936;2023-02-28T16:11:59;5.70;81.80
2459;DHT22;1241;50.920;6.936;2023-02-28T16:14:28;5.60;81.60
2459;DHT22;1241;50.920;6.936;2023-02-28T16:17:03;5.60;82.20
2459;DHT22;1241;50.920;6.936;2023-02-28T16:19:31;5.60;82.70
2459;DHT22;1241;50.920;6.936;2023-02-28T16:21:57;5.60;82.90
2459;DHT22;1241;50.920;6.936;2023-02-28T16:24:23;5.50;81.80
2459;DHT22;1241;50.920;6.936;2023-02-28T16:26:51;5.50;83.10
2459;DHT22;1241;50.920;6.936;2023-02-28T16:29:29;5.50;83.80
2459;DHT22;1241;50.920;6.936;2023-02-28T16:31:56;5.50;83.60
2459;DHT22;1241;50.920;6.936;2023-02-28T16:34:23;5.50;83.20
2459;DHT22;1241;50.920;6.936;2023-02-28T16:36:49;5.40;83.60
2459;DHT22;1241;50.920;6.936;2023-02-28T16:39:15;5.40;84.80
2459;DHT22;1241;50.920;6.936;2023-02-28T16:41:45;5.40;84.30
2459;DHT22;1241;50.920;6.936;2023-02-28T16:44:16;5.30;83.80
2459;DHT22;1241;50.920;6.936;2023-02-28T16:46:46;5.30;85.30
2459;DHT22;1241;50.920;6.936;2023-02-28T16:49:12;5.30;85.30
2459;DHT22;1241;50.920;6.936;2023-02-28T16:51:38;5.30;85.20
2459;DHT22;1241;50.920;6.936;2023-02-28T16:54:04;5.30;86.70
2459;DHT22;1241;50.920;6.936;2023-02-28T16:56:30;5.30;86.00
2459;DHT22;1241;50.920;6.936;2023-02-28T16:59:02;5.20;87.80
2459;DHT22;1241;50.920;6.936;2023-02-28T17:01:28;5.20;88.40
2459;DHT22;1241;50.920;6.936;2023-02-28T17:03:54;5.20;87.80
2459;DHT22;1241;50.920;6.936;2023-02-28T17:06:28;5.20;87.70
2459;DHT22;1241;50.920;6.936;2023-02-28T17:08:55;5.10;88.10
2459;DHT22;1241;50.920;6.936;2023-02-28T17:11:21;5.10;89.00
2459;DHT22;1241;50.920;6.936;2023-02-28T17:13:47;5.10;90.70
2459;DHT22;1241;50.920;6.936;2023-02-28T17:16:31;5.00;90.20
2459;DHT22;1241;50.920;6.936;2023-02-28T17:19:00;5.00;90.00
2459;DHT22;1241;50.920;6.936;2023-02-28T17:21:27;5.00;90.30
2459;DHT22;1241;50.920;6.936;2023-02-28T17:23:53;4.90;90.60
2459;DHT22;1241;50.920;6.936;2023-02-28T17:26:20;5.00;91.20
2459;DHT22;1241;50.920;6.936;2023-02-28T17:28:48;4.90;92.00
2459;DHT22;1241;50.920;6.936;2023-02-28T17:31:14;4.90;92.30
2459;DHT22;1241;50.920;6.936;2023-02-28T17:33:40;4.80;91.90
2459;DHT22;1241;50.920;6.936;2023-02-28T17:36:08;4.80;92.00
2459;DHT22;1241;50.920;6.936;2023-02-28T17:38:35;4.80;92.80
2459;DHT22;1241;50.920;6.936;2023-02-28T17:41:01;4.80;93.20
2459;DHT22;1241;50.920;6.936;2023-02-28T17:43:27;4.70;93.90
2459;DHT22;1241;50.920;6.936;2023-02-28T17:45:54;4.70;93.80
2459;DHT22;1241;50.920;6.936;2023-02-28T17:48:20;4.70;94.10
2459;DHT22;1241;50.920;6.936;2023-02-28T17:50:46;4.70;95.00
2459;DHT22;1241;50.920;6.936;2023-02-28T17:53:11;4.70;95.20
2459;DHT22;1241;50.920;6.936;2023-02-28T17:55:37;4.60;95.50
2459;DHT22;1241;50.920;6.936;2023-02-28T17:58:04;4.60;96.30
2459;DHT22;1241;50.920;6.936;2023-02-28T18:00:30;4.60;96.90
2459;DHT22;1241;50.920;6.936;2023-02-28T18:02:59;4.60;96.90
2459;DHT22;1241;50.920;6.936;2023-02-28T18:05:24;4.60;97.00
2459;DHT22;1241;50.920;6.936;2023-02-28T18:07:51;4.50;97.30
2459;DHT22;1241;50.920;6.936;2023-02-28T18:10:20;4.50;97.80
2459;DHT22;1241;50.920;6.936;2023-02-28T18:12:47;4.50;98.50
2459;DHT22;1241;50.920;6.936;2023-02-28T18:15:14;4.50;98.60
2459;DHT22;1241;50.920;6.936;2023-02-28T18:17:40;4.40;99.40
2459;DHT22;1241;50.920;6.936;2023-02-28T18:20:09;4.40;99.90
2459;DHT22;1241;50.920;6.936;2023-02-28T18:22:40;4.30;99.90
2459;DHT22;1241;50.920;6.936;2023-02-28T18:25:08;4.30;99.90
2459;DHT22;1241;50.920;6.936;2023-02-28T18:27:36;4.30;99.90
2459;DHT22;1241;50.920;6.936;2023-02-28T18:30:03;4.20;99.90
2459;DHT22;1241;50.920;6.936;2023-02-28T18:32:30;4.20;99.90
2459;DHT22;1241;50.920;6.936;2023-02-28T18:34:56;4.20;99.90
2459;DHT22;1241;50.920;6.936;2023-02-28T18:37:22;4.10;99.90
2459;DHT22;1241;50.920;6.936;2023-02-28T18:39:47;4.10;99.90
2459;DHT22;1241;50.920;6.936;2023-02-28T18:42:13;4.00;99.90
2459;DHT22;1241;50.920;6.936;2023-02-28T18:44:39;3.90;99.90
2459;DHT22;1241;50.920;6.936;2023-02-28T18:47:06;3.90;99.90
2459;DHT22;1241;50.920;6.936;2023-02-28T18:49:31;3.90;99.90
2459;DHT22;1241;50.920;6.936;2023-02-28T18:52:02;3.80;99.90
2459;DHT22;1241;50.920;6.936;2023-02-28T18:54:28;3.80;99.90
2459;DHT22;1241;50.920;6.936;2023-02-28T18:56:54;3.70;99.90
2459;DHT22;1241;50.920;6.936;2023-02-28T18:59:21;3.70;99.90
2459;DHT22;1241;50.920;6.936;2023-02-28T19:01:46;3.70;99.90
2459;DHT22;1241;50.920;6.936;2023-02-28T19:04:13;3.60;99.90